Time;durP1;ratioP1;P1;durP2;ratioP2;P2;SDS_P1;SDS_P2;PMS_P1;PMS_P2;Temp;Humidity;BMP_temperature;BMP_pressure;BME280_temperature;BME280_humidity;BME280_pressure;Samples;Min_cycle;Max_cycle;Signal;HPM_P1;HPM_P2
2021/12/29 00:00:18;;;;;;;15.98;4.97;;;8.30;97.30;;;;;;5074743;28;20103;-81
2021/12/29 00:02:44;;;;;;;18.80;5.75;;;8.30;97.40;;;;;;5095483;28;20119;-81
2021/12/29 00:05:11;;;;;;;20.50;6.18;;;8.30;97.40;;;;;;5093125;28;20131;-79
2021/12/29 00:07:38;;;;;;;20.58;6.60;;;8.30;97.40;;;;;;5094526;28;20141;-81
2021/12/29 00:10:05;;;;;;;16.67;7.10;;;8.30;97.40;;;;;;5098752;28;20048;-81
2021/12/29 00:12:39;;;;;;;23.75;7.43;;;8.30;97.40;;;;;;5095129;28;20060;-82
2021/12/29 00:15:08;;;;;;;29.48;7.63;;;8.30;97.40;;;;;;5098119;28;20033;-82
2021/12/29 00:17:35;;;;;;;28.33;7.13;;;8.30;97.30;;;;;;5095879;28;20033;-82
2021/12/29 00:20:03;;;;;;;24.85;7.15;;;8.30;97.40;;;;;;5097855;28;20846;-83
2021/12/29 00:22:31;;;;;;;18.40;5.93;;;8.30;97.40;;;;;;5080905;28;20040;-81
2021/12/29 00:24:58;;;;;;;19.65;6.40;;;8.30;97.40;;;;;;5083411;28;20092;-82
2021/12/29 00:27:24;;;;;;;25.42;7.50;;;8.30;97.40;;;;;;5078247;28;20053;-82
2021/12/29 00:29:51;;;;;;;30.00;8.13;;;8.30;97.50;;;;;;5085922;28;20055;-82
2021/12/29 00:32:18;;;;;;;28.73;7.63;;;8.30;97.50;;;;;;5092446;28;20041;-81
2021/12/29 00:34:45;;;;;;;27.55;8.90;;;8.40;97.50;;;;;;5097216;28;20049;-82
2021/12/29 00:37:11;;;;;;;21.08;7.18;;;8.40;97.50;;;;;;5096279;28;20153;-82
2021/12/29 00:39:38;;;;;;;27.13;7.35;;;8.40;97.50;;;;;;5100051;28;20102;-82
2021/12/29 00:42:05;;;;;;;25.65;7.40;;;8.40;97.50;;;;;;5094388;28;20037;-82
2021/12/29 00:44:33;;;;;;;27.00;7.50;;;8.40;97.50;;;;;;5090894;28;20098;-82
2021/12/29 00:47:00;;;;;;;25.38;7.32;;;8.40;97.50;;;;;;5078487;28;20029;-81
2021/12/29 00:49:35;;;;;;;24.27;5.93;;;8.40;97.50;;;;;;5067153;28;20041;-82
2021/12/29 00:52:12;;;;;;;35.58;7.15;;;8.40;97.40;;;;;;5087707;28;20115;-82
2021/12/29 00:54:40;;;;;;;19.25;7.10;;;8.40;97.50;;;;;;5090614;28;20399;-82
2021/12/29 00:57:07;;;;;;;23.95;7.55;;;8.40;97.50;;;;;;5079831;28;20056;-82
2021/12/29 00:59:35;;;;;;;23.17;7.95;;;8.40;97.50;;;;;;5091330;28;20032;-82
2021/12/29 01:02:02;;;;;;;48.63;9.35;;;8.40;97.50;;;;;;5092264;28;20053;-81
2021/12/29 01:04:29;;;;;;;37.35;8.60;;;8.40;97.60;;;;;;5096879;28;20049;-82
2021/12/29 01:06:55;;;;;;;28.13;9.80;;;8.40;97.50;;;;;;5089427;28;20057;-80
2021/12/29 01:09:22;;;;;;;31.20;9.50;;;8.40;97.50;;;;;;5087426;28;20136;-82
2021/12/29 01:11:49;;;;;;;33.92;10.00;;;8.40;97.50;;;;;;5096774;28;20045;-81
2021/12/29 01:14:21;;;;;;;30.92;9.98;;;8.40;97.50;;;;;;5073243;28;20182;-83
2021/12/29 01:16:51;;;;;;;29.27;9.55;;;8.40;97.50;;;;;;5089397;28;20051;-81
2021/12/29 01:19:24;;;;;;;42.75;10.90;;;8.40;97.40;;;;;;5100580;28;20067;-80
2021/12/29 01:21:54;;;;;;;32.40;9.80;;;8.40;97.50;;;;;;5101040;28;20039;-80
2021/12/29 01:24:22;;;;;;;38.00;10.57;;;8.40;97.40;;;;;;5092509;28;20104;-81
2021/12/29 01:26:50;;;;;;;36.70;9.95;;;8.40;97.40;;;;;;5102068;28;20101;-80
2021/12/29 01:29:17;;;;;;;38.25;10.30;;;8.40;97.40;;;;;;5097203;28;20709;-82
2021/12/29 01:31:45;;;;;;;44.28;10.85;;;8.40;97.50;;;;;;5091289;28;20407;-82
2021/12/29 01:34:13;;;;;;;39.83;9.73;;;8.40;97.50;;;;;;5092407;28;20037;-81
2021/12/29 01:36:41;;;;;;;37.47;9.20;;;8.40;97.50;;;;;;5097167;28;20060;-81
2021/12/29 01:39:12;;;;;;;40.75;8.82;;;8.40;97.50;;;;;;5088125;28;20135;-82
2021/12/29 01:41:39;;;;;;;29.25;7.72;;;8.40;97.50;;;;;;5093604;28;20084;-81
2021/12/29 01:44:12;;;;;;;19.83;5.60;;;8.40;97.60;;;;;;5086833;28;20066;-81
2021/12/29 01:46:40;;;;;;;19.70;6.18;;;8.40;97.50;;;;;;5084283;28;20104;-81
2021/12/29 01:49:08;;;;;;;25.58;6.40;;;8.40;97.60;;;;;;5098488;28;21907;-82
2021/12/29 01:51:37;;;;;;;28.58;5.93;;;8.40;97.60;;;;;;5098418;28;20104;-82
2021/12/29 01:54:23;;;;;;;19.77;5.38;;;8.40;97.60;;;;;;5084073;28;20057;-82
2021/12/29 01:56:54;;;;;;;21.27;5.50;;;8.40;97.50;;;;;;5091493;28;20059;-82
2021/12/29 01:59:22;;;;;;;17.67;5.95;;;8.40;97.60;;;;;;5094303;28;20048;-82
2021/12/29 02:01:49;;;;;;;24.80;6.13;;;8.40;97.60;;;;;;5081918;28;20869;-81
2021/12/29 02:04:17;;;;;;;33.22;7.45;;;8.40;97.60;;;;;;5085802;28;20033;-81
2021/12/29 02:06:44;;;;;;;25.88;6.57;;;8.40;97.60;;;;;;5071231;28;20040;-81
2021/12/29 02:09:14;;;;;;;18.35;5.97;;;8.40;97.50;;;;;;5085298;28;20045;-82
2021/12/29 02:11:42;;;;;;;26.27;7.40;;;8.40;97.50;;;;;;5094071;28;20048;-82
2021/12/29 02:14:10;;;;;;;25.67;7.07;;;8.40;97.50;;;;;;5094624;28;20250;-82
2021/12/29 02:16:39;;;;;;;22.77;6.43;;;8.40;97.50;;;;;;5091422;28;20053;-82
2021/12/29 02:19:09;;;;;;;32.95;6.88;;;8.30;97.50;;;;;;5086937;28;20045;-82
2021/12/29 02:21:37;;;;;;;27.85;7.32;;;8.40;97.50;;;;;;5080538;28;20056;-83
2021/12/29 02:26:37;;;;;;;33.55;6.20;;;8.30;97.40;;;;;;5090442;28;20571;-82
2021/12/29 02:29:14;;;;;;;32.35;6.15;;;8.30;97.40;;;;;;5098336;28;20103;-81
2021/12/29 02:31:42;;;;;;;31.92;5.93;;;8.30;97.50;;;;;;5099946;28;20105;-82
2021/12/29 02:34:14;;;;;;;24.23;5.55;;;8.30;97.50;;;;;;5090735;28;20055;-81
2021/12/29 02:36:45;;;;;;;32.78;5.95;;;8.30;97.50;;;;;;5093103;28;20104;-81
2021/12/29 02:39:20;;;;;;;33.30;6.18;;;8.30;97.40;;;;;;5091504;28;20173;-81
2021/12/29 02:41:51;;;;;;;32.78;6.15;;;8.30;97.50;;;;;;5085913;28;20060;-81
2021/12/29 02:44:26;;;;;;;35.40;5.82;;;8.30;97.40;;;;;;5096024;28;20060;-81
2021/12/29 02:46:55;;;;;;;32.08;5.82;;;8.30;97.40;;;;;;5094716;28;20056;-81
2021/12/29 02:49:22;;;;;;;34.35;5.50;;;8.30;97.30;;;;;;5094159;28;20498;-81
2021/12/29 02:51:49;;;;;;;35.15;5.45;;;8.30;97.30;;;;;;5101245;28;20037;-82
2021/12/29 02:54:16;;;;;;;32.95;5.65;;;8.30;97.30;;;;;;5095840;28;20064;-82
2021/12/29 02:56:47;;;;;;;35.22;5.50;;;8.30;97.30;;;;;;5092843;28;20170;-82
2021/12/29 02:59:15;;;;;;;30.67;5.60;;;8.30;97.20;;;;;;5103155;28;20052;-81
2021/12/29 03:01:42;;;;;;;32.92;5.50;;;8.30;97.20;;;;;;5091248;28;20052;-79
2021/12/29 03:04:10;;;;;;;39.92;5.95;;;8.30;97.30;;;;;;5085955;28;20066;-80
2021/12/29 03:06:38;;;;;;;37.30;6.50;;;8.30;97.20;;;;;;5064803;28;20056;-80
2021/12/29 03:09:07;;;;;;;36.78;5.95;;;8.20;97.10;;;;;;5085146;28;20041;-79
2021/12/29 03:11:37;;;;;;;41.60;7.18;;;8.30;97.30;;;;;;5082289;28;20044;-79
2021/12/29 03:14:04;;;;;;;43.70;5.72;;;8.30;97.30;;;;;;5085306;28;20047;-79
2021/12/29 03:16:33;;;;;;;40.53;6.03;;;8.30;97.30;;;;;;5089573;28;20096;-80
2021/12/29 03:19:04;;;;;;;36.78;5.80;;;8.30;97.30;;;;;;5094298;28;20091;-79
2021/12/29 03:21:37;;;;;;;38.38;5.70;;;8.30;97.30;;;;;;5092422;28;20108;-79
2021/12/29 03:24:07;;;;;;;37.13;6.47;;;8.30;97.30;;;;;;5105380;28;20044;-79
2021/12/29 03:26:34;;;;;;;38.40;6.40;;;8.30;97.30;;;;;;5088073;28;20071;-80
2021/12/29 03:29:01;;;;;;;29.67;5.53;;;8.30;97.30;;;;;;5091513;28;20063;-79
2021/12/29 03:31:31;;;;;;;34.08;5.93;;;8.30;97.40;;;;;;5091510;28;20059;-79
2021/12/29 03:33:59;;;;;;;35.40;5.70;;;8.30;97.40;;;;;;5090034;28;20041;-79
2021/12/29 03:36:28;;;;;;;29.67;5.57;;;8.30;97.30;;;;;;5091470;28;20595;-79
2021/12/29 03:38:54;;;;;;;39.35;5.80;;;8.30;97.30;;;;;;5089109;28;20055;-79
2021/12/29 03:41:23;;;;;;;26.63;5.72;;;8.30;97.40;;;;;;5090348;28;20081;-79
2021/12/29 03:43:52;;;;;;;33.75;5.80;;;8.30;97.30;;;;;;5094766;28;20047;-78
2021/12/29 03:46:20;;;;;;;32.20;5.95;;;8.30;97.30;;;;;;5072679;28;20060;-80
2021/12/29 03:48:48;;;;;;;23.23;5.10;;;8.30;97.30;;;;;;5093362;28;20734;-79
2021/12/29 03:51:15;;;;;;;34.55;6.00;;;8.30;97.30;;;;;;5085391;28;20056;-79
2021/12/29 03:53:43;;;;;;;26.52;5.28;;;8.30;97.20;;;;;;5084221;28;20061;-79
2021/12/29 03:56:10;;;;;;;26.58;5.07;;;8.30;97.30;;;;;;5081110;28;20037;-79
2021/12/29 03:58:39;;;;;;;27.50;5.00;;;8.30;97.30;;;;;;5093284;28;20056;-79
2021/12/29 04:01:12;;;;;;;21.48;4.80;;;8.30;97.30;;;;;;5099576;28;20053;-79
2021/12/29 04:03:42;;;;;;;25.23;5.30;;;8.30;97.30;;;;;;5084453;28;20056;-79
2021/12/29 04:06:09;;;;;;;20.65;5.22;;;8.30;97.20;;;;;;5096882;28;20040;-80
2021/12/29 04:08:37;;;;;;;26.02;5.00;;;8.30;97.20;;;;;;5075732;28;20077;-79
2021/12/29 04:11:03;;;;;;;25.45;5.88;;;8.30;97.30;;;;;;5075274;28;20059;-79
2021/12/29 04:13:30;;;;;;;29.50;6.00;;;8.30;97.20;;;;;;5088924;28;20072;-79
2021/12/29 04:15:57;;;;;;;28.70;6.50;;;8.30;97.20;;;;;;5093210;28;20089;-79
2021/12/29 04:18:27;;;;;;;29.75;6.50;;;8.30;97.20;;;;;;5090584;28;20116;-79
2021/12/29 04:21:01;;;;;;;22.58;6.40;;;8.30;97.20;;;;;;5072408;28;20498;-78
2021/12/29 04:23:31;;;;;;;30.95;6.60;;;8.30;97.20;;;;;;5086841;28;20048;-79
2021/12/29 04:26:01;;;;;;;23.83;6.78;;;8.30;97.20;;;;;;5077373;28;20041;-80
2021/12/29 04:28:29;;;;;;;28.92;7.53;;;8.30;97.20;;;;;;5080726;28;20051;-80
2021/12/29 04:30:59;;;;;;;31.15;7.10;;;8.30;97.20;;;;;;5097502;28;20136;-79
2021/12/29 04:33:27;;;;;;;23.98;6.97;;;8.30;97.20;;;;;;5089058;28;20048;-80
2021/12/29 04:35:54;;;;;;;29.92;7.25;;;8.30;97.30;;;;;;5084935;28;20045;-80
2021/12/29 04:38:21;;;;;;;25.52;6.75;;;8.30;97.30;;;;;;5093986;28;20057;-80
2021/12/29 04:40:50;;;;;;;22.88;7.25;;;8.30;97.20;;;;;;5091067;28;20056;-78
2021/12/29 04:43:18;;;;;;;28.10;6.72;;;8.30;97.30;;;;;;5075108;28;20108;-79
2021/12/29 04:45:45;;;;;;;23.10;6.72;;;8.30;97.30;;;;;;5094718;28;20045;-79
2021/12/29 04:48:14;;;;;;;44.65;8.10;;;8.30;97.30;;;;;;5093695;28;20038;-80
2021/12/29 04:50:50;;;;;;;27.95;6.60;;;8.30;97.40;;;;;;5084761;28;20049;-78
2021/12/29 04:53:19;;;;;;;23.73;6.00;;;8.30;97.30;;;;;;5084295;28;20877;-79
2021/12/29 04:55:49;;;;;;;25.60;6.05;;;8.30;97.50;;;;;;5085996;28;20053;-78
2021/12/29 04:58:18;;;;;;;21.30;5.43;;;8.30;97.40;;;;;;5083414;28;20052;-79
2021/12/29 05:00:47;;;;;;;18.52;6.00;;;8.30;97.50;;;;;;5089028;28;20755;-79
2021/12/29 05:03:14;;;;;;;19.55;6.40;;;8.30;97.50;;;;;;5084376;28;20091;-79
2021/12/29 05:05:54;;;;;;;27.90;6.78;;;8.30;97.50;;;;;;5088011;28;20076;-79
2021/12/29 05:08:29;;;;;;;27.38;6.60;;;8.30;97.60;;;;;;5087381;28;20055;-79
2021/12/29 05:11:01;;;;;;;22.40;6.15;;;8.30;97.60;;;;;;5086540;28;20053;-79
2021/12/29 05:13:30;;;;;;;17.90;5.45;;;8.30;97.60;;;;;;5091579;28;20057;-79
2021/12/29 05:15:57;;;;;;;25.10;6.15;;;8.30;97.60;;;;;;5085285;28;20045;-79
2021/12/29 05:18:26;;;;;;;21.00;6.20;;;8.30;97.70;;;;;;5077758;28;20044;-80
2021/12/29 05:20:54;;;;;;;23.98;6.13;;;8.30;97.60;;;;;;5084084;28;20095;-79
2021/12/29 05:23:21;;;;;;;20.85;5.40;;;8.30;97.70;;;;;;5088474;28;20021;-80
2021/12/29 05:25:49;;;;;;;16.67;4.82;;;8.30;97.70;;;;;;5086516;28;20029;-79
2021/12/29 05:28:20;;;;;;;22.20;5.40;;;8.30;97.70;;;;;;5090654;28;20044;-80
2021/12/29 05:30:47;;;;;;;20.90;5.03;;;8.30;97.70;;;;;;5086173;28;20049;-80
2021/12/29 05:33:15;;;;;;;20.80;5.00;;;8.30;97.70;;;;;;5092137;28;20041;-80
2021/12/29 05:35:42;;;;;;;19.67;5.03;;;8.30;97.60;;;;;;5094940;28;20096;-80
2021/12/29 05:38:08;;;;;;;12.90;3.97;;;8.30;97.60;;;;;;5091144;28;20147;-79
2021/12/29 05:40:36;;;;;;;12.63;3.45;;;8.30;97.60;;;;;;5080118;28;20057;-79
2021/12/29 05:43:06;;;;;;;13.13;3.40;;;8.30;97.60;;;;;;5097109;28;20051;-78
2021/12/29 05:45:33;;;;;;;11.00;3.30;;;8.30;97.50;;;;;;5095313;28;20084;-79
2021/12/29 05:48:03;;;;;;;7.90;3.17;;;8.30;97.50;;;;;;5085093;28;20087;-79
2021/12/29 05:50:30;;;;;;;7.90;3.10;;;8.30;97.50;;;;;;5082971;28;20065;-80
2021/12/29 05:52:58;;;;;;;10.02;2.70;;;8.30;97.60;;;;;;5101558;28;20108;-78
2021/12/29 05:55:25;;;;;;;12.32;3.20;;;8.30;97.50;;;;;;5086248;28;20030;-80
2021/12/29 05:57:52;;;;;;;12.23;3.17;;;8.30;97.50;;;;;;5089627;28;20051;-79
2021/12/29 06:00:21;;;;;;;12.23;3.53;;;8.30;97.50;;;;;;5092933;28;20036;-78
2021/12/29 06:02:49;;;;;;;14.52;4.00;;;8.20;97.50;;;;;;5086491;28;20072;-79
2021/12/29 06:05:19;;;;;;;16.92;3.97;;;8.20;97.50;;;;;;5087050;28;20053;-78
2021/12/29 06:07:45;;;;;;;15.82;4.35;;;8.20;97.50;;;;;;5092987;28;20076;-80
2021/12/29 06:10:12;;;;;;;20.80;5.45;;;8.20;97.60;;;;;;5088504;28;20525;-78
2021/12/29 06:12:40;;;;;;;34.22;6.03;;;8.20;97.60;;;;;;5097828;28;20132;-79
2021/12/29 06:15:08;;;;;;;20.83;5.35;;;8.20;97.60;;;;;;5094868;28;20055;-79
2021/12/29 06:17:36;;;;;;;33.20;5.75;;;8.20;97.60;;;;;;5081458;28;20884;-79
2021/12/29 06:20:07;;;;;;;32.80;6.38;;;8.20;97.50;;;;;;5086073;28;20037;-80
2021/12/29 06:22:36;;;;;;;35.38;6.35;;;8.20;97.40;;;;;;5083491;28;20164;-79
2021/12/29 06:25:05;;;;;;;29.05;6.10;;;8.20;97.50;;;;;;5087564;28;20076;-79
2021/12/29 06:27:32;;;;;;;29.95;5.72;;;8.10;97.50;;;;;;5095347;28;20507;-79
2021/12/29 06:29:59;;;;;;;33.17;5.93;;;8.10;97.40;;;;;;5101084;28;20099;-79
2021/12/29 06:32:26;;;;;;;36.25;6.40;;;8.10;97.40;;;;;;5088171;28;20614;-79
2021/12/29 06:34:53;;;;;;;35.85;6.90;;;8.10;97.40;;;;;;5103613;28;21825;-79
2021/12/29 06:37:20;;;;;;;46.00;6.95;;;8.10;97.40;;;;;;5096757;28;20051;-79
2021/12/29 06:39:47;;;;;;;36.72;6.65;;;8.10;97.40;;;;;;5099377;28;20108;-79
2021/12/29 06:42:15;;;;;;;46.40;8.18;;;8.10;97.40;;;;;;5090665;28;20084;-79
2021/12/29 06:44:44;;;;;;;52.22;8.02;;;8.10;97.40;;;;;;5096101;28;20128;-79
2021/12/29 06:47:12;;;;;;;38.95;6.72;;;8.10;97.30;;;;;;5096901;28;20079;-79
2021/12/29 06:49:39;;;;;;;36.70;7.63;;;8.10;97.30;;;;;;5085737;28;20049;-78
2021/12/29 06:52:07;;;;;;;39.20;6.82;;;8.10;97.40;;;;;;5084822;28;20073;-79
2021/12/29 06:54:36;;;;;;;35.85;6.85;;;8.10;97.40;;;;;;5083615;28;20337;-78
2021/12/29 06:57:03;;;;;;;29.13;5.63;;;8.10;97.30;;;;;;5083517;28;20080;-79
2021/12/29 06:59:31;;;;;;;35.40;6.72;;;8.10;97.30;;;;;;5094943;28;20032;-78
2021/12/29 07:01:57;;;;;;;41.63;7.53;;;8.10;97.40;;;;;;5089396;28;20052;-79
2021/12/29 07:04:25;;;;;;;40.50;7.90;;;8.10;97.30;;;;;;5083312;28;20025;-79
2021/12/29 07:06:53;;;;;;;44.00;6.80;;;8.00;97.30;;;;;;5087895;28;20125;-79
2021/12/29 07:09:20;;;;;;;24.90;6.45;;;8.00;97.30;;;;;;5091664;28;20045;-79
2021/12/29 07:11:48;;;;;;;32.67;7.13;;;8.10;97.40;;;;;;5088148;28;20052;-79
2021/12/29 07:14:20;;;;;;;35.90;7.20;;;8.00;97.30;;;;;;5085774;28;20049;-79
2021/12/29 07:16:48;;;;;;;41.75;7.53;;;8.00;97.30;;;;;;5089610;28;20080;-78
2021/12/29 07:19:16;;;;;;;46.90;7.47;;;8.00;97.30;;;;;;5090309;28;20045;-80
2021/12/29 07:21:44;;;;;;;32.72;7.10;;;8.00;97.40;;;;;;5083729;28;20048;-79
2021/12/29 07:24:15;;;;;;;43.88;7.72;;;8.00;97.30;;;;;;5094361;28;20029;-80
2021/12/29 07:26:42;;;;;;;39.05;7.07;;;8.00;97.30;;;;;;5087391;28;20056;-78
2021/12/29 07:29:09;;;;;;;37.08;7.72;;;8.00;97.30;;;;;;5068968;28;20139;-79
2021/12/29 07:31:38;;;;;;;60.10;8.60;;;8.00;97.30;;;;;;5068183;28;20044;-78
2021/12/29 07:34:17;;;;;;;43.20;8.07;;;8.00;97.30;;;;;;5088281;28;20095;-79
2021/12/29 07:36:44;;;;;;;26.65;7.18;;;8.00;97.30;;;;;;5091087;28;20075;-80
2021/12/29 07:39:14;;;;;;;31.15;7.60;;;8.00;97.30;;;;;;5089340;28;20132;-79
2021/12/29 07:41:42;;;;;;;35.92;7.60;;;8.00;97.30;;;;;;5085813;28;20037;-79
2021/12/29 07:44:11;;;;;;;43.25;9.85;;;8.00;97.30;;;;;;5082557;28;20107;-80
2021/12/29 07:46:38;;;;;;;42.63;10.15;;;7.90;97.30;;;;;;5097166;28;20041;-79
2021/12/29 07:49:08;;;;;;;37.40;9.00;;;8.00;97.20;;;;;;5087145;28;20044;-79
2021/12/29 07:51:35;;;;;;;44.72;10.52;;;8.00;97.30;;;;;;5082749;28;20091;-79
2021/12/29 07:54:02;;;;;;;45.58;9.63;;;7.90;97.30;;;;;;5086301;28;20175;-79
2021/12/29 07:56:28;;;;;;;43.45;10.00;;;7.90;97.30;;;;;;5090553;28;20104;-79
2021/12/29 07:58:55;;;;;;;37.08;10.93;;;7.90;97.20;;;;;;5069239;28;20045;-79
2021/12/29 08:01:23;;;;;;;35.15;10.02;;;7.90;97.20;;;;;;5104913;28;20291;-78
2021/12/29 08:03:50;;;;;;;46.65;10.15;;;7.90;97.20;;;;;;5089293;28;20045;-79
2021/12/29 08:06:18;;;;;;;37.38;10.18;;;7.90;97.20;;;;;;5084708;28;20056;-79
2021/12/29 08:08:47;;;;;;;38.63;10.23;;;7.90;97.20;;;;;;5088029;28;20051;-78
2021/12/29 08:11:16;;;;;;;54.58;10.90;;;7.90;97.20;;;;;;5100362;28;20146;-78
2021/12/29 08:13:46;;;;;;;50.30;10.18;;;7.90;97.20;;;;;;5095330;28;20029;-78
2021/12/29 08:16:13;;;;;;;38.90;10.63;;;7.90;97.20;;;;;;5090498;28;20071;-79
2021/12/29 08:18:39;;;;;;;54.70;11.55;;;7.90;97.20;;;;;;5086785;28;20529;-79
2021/12/29 08:21:06;;;;;;;43.95;11.48;;;7.80;97.10;;;;;;5088689;28;20033;-80
2021/12/29 08:23:33;;;;;;;40.88;10.93;;;7.90;97.20;;;;;;5088844;28;20055;-80
2021/12/29 08:26:02;;;;;;;38.55;11.63;;;7.90;97.20;;;;;;5098559;28;20065;-79
2021/12/29 08:28:30;;;;;;;58.25;12.05;;;7.90;97.20;;;;;;5090210;28;20068;-79
2021/12/29 08:30:57;;;;;;;61.30;12.45;;;7.90;97.30;;;;;;5095589;28;20120;-79
2021/12/29 08:33:24;;;;;;;41.70;12.25;;;7.90;97.20;;;;;;5106329;28;20092;-81
2021/12/29 08:35:51;;;;;;;51.90;12.68;;;7.90;97.20;;;;;;5109373;28;20052;-82
2021/12/29 08:38:18;;;;;;;58.35;12.90;;;7.90;97.30;;;;;;5083447;28;20051;-80
2021/12/29 08:40:45;;;;;;;46.92;11.23;;;7.90;97.20;;;;;;5101889;28;20103;-80
2021/12/29 08:43:16;;;;;;;66.57;11.88;;;7.90;97.20;;;;;;5104842;28;20084;-81
2021/12/29 08:45:44;;;;;;;35.40;9.98;;;7.90;97.20;;;;;;5085577;27;20202;-81
2021/12/29 08:48:12;;;;;;;32.92;10.68;;;7.90;97.20;;;;;;5093990;28;20048;-78
2021/12/29 08:50:40;;;;;;;43.67;10.57;;;7.90;97.20;;;;;;5079560;28;20062;-79
2021/12/29 08:53:08;;;;;;;41.88;10.68;;;7.90;97.20;;;;;;5098934;28;20076;-79
2021/12/29 08:55:39;;;;;;;46.08;10.60;;;7.90;97.20;;;;;;5097948;28;20124;-78
2021/12/29 08:58:06;;;;;;;39.85;10.50;;;7.90;97.10;;;;;;5093108;28;20107;-78
2021/12/29 09:00:37;;;;;;;45.58;11.50;;;7.90;97.20;;;;;;5095079;28;20041;-78
2021/12/29 09:03:08;;;;;;;39.15;10.98;;;7.90;97.20;;;;;;5100531;28;20053;-77
2021/12/29 09:05:35;;;;;;;36.95;11.65;;;7.90;97.10;;;;;;5078648;28;20510;-78
2021/12/29 09:08:02;;;;;;;60.15;11.25;;;7.90;97.10;;;;;;5089666;28;21199;-78
2021/12/29 09:10:29;;;;;;;46.55;11.75;;;7.90;97.10;;;;;;5085664;28;20055;-78
2021/12/29 09:12:56;;;;;;;43.97;11.55;;;7.90;97.10;;;;;;5088916;28;20097;-79
2021/12/29 09:15:24;;;;;;;47.65;12.82;;;7.90;97.10;;;;;;5092728;28;20889;-79
2021/12/29 09:17:51;;;;;;;49.90;12.00;;;7.90;97.10;;;;;;5095723;28;20051;-79
2021/12/29 09:20:26;;;;;;;28.45;11.27;;;7.90;97.00;;;;;;5098617;28;20980;-78
2021/12/29 09:23:07;;;;;;;42.35;12.48;;;7.90;97.10;;;;;;5102022;28;20060;-79
2021/12/29 09:25:38;;;;;;;33.35;9.85;;;7.90;97.00;;;;;;5107553;28;20091;-80
2021/12/29 09:28:10;;;;;;;43.20;10.85;;;7.80;96.90;;;;;;5106684;28;20072;-79
2021/12/29 09:30:41;;;;;;;39.17;10.37;;;7.90;96.90;;;;;;5102985;28;20049;-79
2021/12/29 09:33:08;;;;;;;35.33;10.43;;;7.90;96.90;;;;;;5091418;28;20060;-79
2021/12/29 09:35:38;;;;;;;28.90;10.15;;;7.90;96.90;;;;;;5104995;28;20048;-79
2021/12/29 09:38:06;;;;;;;36.80;11.00;;;7.90;96.90;;;;;;5107682;28;20116;-79
2021/12/29 09:40:38;;;;;;;33.90;10.23;;;7.90;96.90;;;;;;5086764;28;20386;-79
2021/12/29 09:43:08;;;;;;;49.75;11.32;;;7.90;96.90;;;;;;5106672;28;20101;-80
2021/12/29 09:45:36;;;;;;;42.95;10.68;;;7.90;96.90;;;;;;5106340;27;20132;-79
2021/12/29 09:48:03;;;;;;;41.15;10.32;;;8.00;96.90;;;;;;5105134;28;20891;-78
2021/12/29 09:50:32;;;;;;;48.75;11.30;;;8.00;96.90;;;;;;5109988;28;20048;-80
2021/12/29 09:52:59;;;;;;;27.23;9.63;;;8.00;96.90;;;;;;5112637;28;20056;-79
2021/12/29 09:55:27;;;;;;;31.85;9.90;;;8.00;96.90;;;;;;5104832;28;20050;-79
2021/12/29 09:57:57;;;;;;;37.28;10.90;;;8.00;96.80;;;;;;5101880;28;20486;-79
2021/12/29 10:00:32;;;;;;;39.67;10.77;;;8.00;96.70;;;;;;5103541;28;20112;-79
2021/12/29 10:03:03;;;;;;;35.78;11.13;;;8.10;96.80;;;;;;5105384;28;20121;-79
2021/12/29 10:05:31;;;;;;;31.65;11.00;;;8.10;96.70;;;;;;5107985;28;20040;-80
2021/12/29 10:08:12;;;;;;;36.08;11.32;;;8.10;96.70;;;;;;5105456;28;20059;-79
2021/12/29 10:10:46;;;;;;;27.03;10.03;;;8.20;96.70;;;;;;5103755;28;20059;-79
2021/12/29 10:13:12;;;;;;;48.58;11.75;;;8.20;96.70;;;;;;5105195;28;20039;-80
2021/12/29 10:15:42;;;;;;;30.35;10.73;;;8.20;96.70;;;;;;5109331;28;20044;-80
2021/12/29 10:18:15;;;;;;;28.30;9.68;;;8.20;96.60;;;;;;5106290;28;20164;-80
2021/12/29 10:20:56;;;;;;;30.20;10.27;;;8.30;96.50;;;;;;5101511;28;20052;-79
2021/12/29 10:23:29;;;;;;;25.80;9.50;;;8.30;96.30;;;;;;5106299;28;20116;-79
2021/12/29 10:26:19;;;;;;;40.80;10.85;;;8.30;96.20;;;;;;5104977;28;20132;-79
2021/12/29 10:29:08;;;;;;;18.98;9.57;;;8.40;96.20;;;;;;5101687;28;20078;-79
2021/12/29 10:31:42;;;;;;;23.92;9.60;;;8.40;96.10;;;;;;5107147;28;20071;-79
2021/12/29 10:34:12;;;;;;;24.80;10.05;;;8.40;95.90;;;;;;5100738;28;20053;-77
2021/12/29 10:36:58;;;;;;;26.08;9.20;;;8.40;95.90;;;;;;5098849;27;20072;-79
2021/12/29 10:39:40;;;;;;;22.98;10.50;;;8.40;95.70;;;;;;5092227;28;20539;-78
2021/12/29 10:42:10;;;;;;;30.92;10.15;;;8.40;95.80;;;;;;5098123;28;20058;-80
2021/12/29 10:44:46;;;;;;;21.08;9.27;;;8.40;95.70;;;;;;5106166;28;20051;-78
2021/12/29 10:47:20;;;;;;;29.13;11.27;;;8.30;94.90;;;;;;5111030;28;20127;-80
2021/12/29 10:49:57;;;;;;;32.97;11.52;;;8.30;95.20;;;;;;5106369;28;20143;-79
2021/12/29 10:52:55;;;;;;;26.52;10.90;;;8.30;95.00;;;;;;5086460;28;20056;-79
2021/12/29 10:55:31;;;;;;;23.02;10.27;;;8.30;95.20;;;;;;5081116;28;20033;-78
2021/12/29 10:58:06;;;;;;;28.92;11.38;;;8.40;95.40;;;;;;5102850;28;20067;-78
2021/12/29 11:01:09;;;;;;;26.15;11.63;;;8.40;95.20;;;;;;5092965;28;20068;-78
2021/12/29 11:03:46;;;;;;;23.80;10.80;;;8.50;95.40;;;;;;5097154;28;20160;-79
2021/12/29 11:06:17;;;;;;;22.92;10.65;;;8.40;94.90;;;;;;5090380;28;20096;-79
2021/12/29 11:09:10;;;;;;;23.60;10.55;;;8.50;95.20;;;;;;5087947;28;20448;-79
2021/12/29 11:11:43;;;;;;;22.15;10.43;;;8.50;95.20;;;;;;5088883;28;20053;-78
2021/12/29 11:14:21;;;;;;;26.00;11.00;;;8.50;94.80;;;;;;5079530;28;20144;-78
2021/12/29 11:17:04;;;;;;;18.90;10.90;;;8.50;94.90;;;;;;5092133;28;20148;-80
2021/12/29 11:19:31;;;;;;;23.67;10.82;;;8.50;95.00;;;;;;5093396;28;20114;-79
2021/12/29 11:22:11;;;;;;;28.40;10.55;;;8.50;95.00;;;;;;5096290;28;20060;-80
2021/12/29 11:24:39;;;;;;;20.92;10.00;;;8.50;94.80;;;;;;5084348;28;20052;-79
2021/12/29 11:27:17;;;;;;;16.98;8.93;;;8.50;94.80;;;;;;5080086;28;20032;-79
2021/12/29 11:29:55;;;;;;;30.05;11.05;;;8.40;94.00;;;;;;5094263;28;20126;-79
2021/12/29 11:32:26;;;;;;;17.48;9.50;;;8.40;94.40;;;;;;5096316;28;20041;-81
2021/12/29 11:35:09;;;;;;;19.15;9.80;;;8.40;94.40;;;;;;5090539;28;20608;-79
2021/12/29 11:37:38;;;;;;;26.58;11.30;;;8.40;94.20;;;;;;5086978;28;20053;-78
2021/12/29 11:40:09;;;;;;;23.95;9.85;;;8.40;94.20;;;;;;5094478;28;20873;-76
2021/12/29 11:42:36;;;;;;;26.05;10.82;;;8.40;94.50;;;;;;5086291;28;20048;-79
2021/12/29 11:45:05;;;;;;;27.63;10.95;;;8.40;94.40;;;;;;5100328;28;20131;-79
2021/12/29 11:47:32;;;;;;;24.77;11.48;;;8.30;94.30;;;;;;5092856;28;20031;-79
2021/12/29 11:49:59;;;;;;;21.67;9.32;;;8.30;94.30;;;;;;5097217;28;20097;-78
2021/12/29 11:52:42;;;;;;;20.08;10.50;;;8.30;94.10;;;;;;5097587;28;20045;-78
2021/12/29 11:55:19;;;;;;;26.58;11.18;;;8.30;94.10;;;;;;5091321;28;20045;-78
2021/12/29 11:57:46;;;;;;;19.33;11.65;;;8.30;94.40;;;;;;5085227;28;20756;-78
2021/12/29 12:00:22;;;;;;;24.92;11.45;;;8.30;94.20;;;;;;5095148;28;20048;-78
2021/12/29 12:03:03;;;;;;;21.10;11.70;;;8.30;94.40;;;;;;5102290;28;20051;-77
2021/12/29 12:05:36;;;;;;;19.58;11.05;;;8.30;94.40;;;;;;5093305;28;20110;-80
2021/12/29 12:08:22;;;;;;;25.90;12.85;;;8.20;93.80;;;;;;5100470;28;20041;-79
2021/12/29 12:10:52;;;;;;;26.95;12.32;;;8.20;94.00;;;;;;5090522;28;20796;-77
2021/12/29 12:13:27;;;;;;;24.65;13.30;;;8.20;94.00;;;;;;5071402;28;20054;-78
2021/12/29 12:16:14;;;;;;;28.30;12.77;;;8.30;94.40;;;;;;5077775;28;20067;-78
2021/12/29 12:18:53;;;;;;;26.60;13.00;;;8.20;94.40;;;;;;5098340;28;20079;-78
2021/12/29 12:21:29;;;;;;;31.90;12.10;;;8.20;94.40;;;;;;5088943;28;20060;-78
2021/12/29 12:24:17;;;;;;;26.42;12.32;;;8.20;94.70;;;;;;5077203;28;20074;-79
2021/12/29 12:27:03;;;;;;;25.58;12.25;;;8.20;94.30;;;;;;5082658;28;20043;-80
2021/12/29 12:29:36;;;;;;;21.33;11.13;;;8.20;94.60;;;;;;5102936;28;20049;-78
2021/12/29 12:32:17;;;;;;;20.00;11.43;;;8.20;94.80;;;;;;5099049;28;20084;-78
2021/12/29 12:34:53;;;;;;;23.92;11.52;;;8.20;94.70;;;;;;5091382;28;20049;-79
2021/12/29 12:37:23;;;;;;;21.90;11.20;;;8.20;94.60;;;;;;5093640;28;20187;-79
2021/12/29 12:40:01;;;;;;;16.63;9.77;;;8.20;94.80;;;;;;5080678;28;20836;-78
2021/12/29 12:42:34;;;;;;;24.42;11.93;;;8.20;94.50;;;;;;5100772;28;20057;-81
2021/12/29 12:45:15;;;;;;;20.10;10.75;;;8.20;94.60;;;;;;5078993;28;20067;-79
2021/12/29 12:47:42;;;;;;;21.40;10.50;;;8.20;94.70;;;;;;5096274;28;20049;-78
2021/12/29 12:50:09;;;;;;;23.10;11.45;;;8.20;94.70;;;;;;5093982;28;20072;-79
2021/12/29 12:52:42;;;;;;;20.58;9.77;;;8.20;94.80;;;;;;5086744;28;20068;-78
2021/12/29 12:55:14;;;;;;;25.77;11.02;;;8.20;94.80;;;;;;5096757;28;20466;-79
2021/12/29 12:57:49;;;;;;;33.25;10.85;;;8.20;94.80;;;;;;5097409;28;20049;-79
2021/12/29 13:00:24;;;;;;;29.67;11.82;;;8.20;94.60;;;;;;5079790;28;20053;-79